Time;durP1;ratioP1;P1;durP2;ratioP2;P2;SDS_P1;SDS_P2;PMS_P1;PMS_P2;Temp;Humidity;BMP_temperature;BMP_pressure;BME280_temperature;BME280_humidity;BME280_pressure;Samples;Min_cycle;Max_cycle;Signal;HPM_P1;HPM_P2
2023/08/21 00:00:53;;;;;;;3.50;3.20;;;23.70;99.90;;;;;;5014824;28;20068;-34
2023/08/21 00:03:19;;;;;;;4.07;3.65;;;23.60;99.90;;;;;;5015057;28;20093;-35
2023/08/21 00:05:44;;;;;;;4.72;3.80;;;23.60;99.90;;;;;;5015016;28;20475;-33
2023/08/21 00:08:10;;;;;;;5.80;3.47;;;23.60;99.90;;;;;;5014743;28;20030;-34
2023/08/21 00:10:40;;;;;;;4.68;3.50;;;23.60;99.90;;;;;;5014564;28;20029;-33
2023/08/21 00:13:06;;;;;;;5.05;3.58;;;23.60;99.90;;;;;;5014798;28;20390;-33
2023/08/21 00:15:32;;;;;;;5.15;3.58;;;23.70;99.90;;;;;;5014721;28;20026;-35
2023/08/21 00:17:58;;;;;;;3.80;3.35;;;23.60;99.90;;;;;;5014618;28;20376;-35
2023/08/21 00:20:23;;;;;;;4.43;3.53;;;23.60;99.90;;;;;;5014490;28;20030;-34
2023/08/21 00:22:49;;;;;;;4.07;3.67;;;23.60;99.90;;;;;;5014571;28;20101;-34
2023/08/21 00:25:15;;;;;;;3.80;3.40;;;23.70;99.90;;;;;;5014444;28;20033;-34
2023/08/21 00:27:40;;;;;;;5.10;3.63;;;23.70;99.90;;;;;;5014346;28;20033;-34
2023/08/21 00:30:06;;;;;;;4.32;3.60;;;23.60;99.90;;;;;;5014226;28;20533;-34
2023/08/21 00:32:32;;;;;;;6.82;3.30;;;23.60;99.90;;;;;;5014555;28;20508;-35
2023/08/21 00:34:58;;;;;;;4.10;3.22;;;23.60;99.90;;;;;;5014367;28;20068;-34
2023/08/21 00:37:23;;;;;;;4.00;3.50;;;23.60;99.90;;;;;;5014120;28;20045;-34
2023/08/21 00:39:49;;;;;;;4.72;3.72;;;23.60;99.90;;;;;;5014050;28;20061;-33
2023/08/21 00:42:15;;;;;;;4.18;3.35;;;23.60;99.90;;;;;;5014224;28;20471;-34
2023/08/21 00:44:40;;;;;;;6.30;4.10;;;23.60;99.90;;;;;;5014190;28;20423;-33
2023/08/21 00:47:06;;;;;;;3.92;3.58;;;23.60;99.90;;;;;;5014038;28;20030;-34
2023/08/21 00:49:32;;;;;;;5.05;3.60;;;23.60;99.90;;;;;;5013853;28;20022;-35
2023/08/21 00:51:59;;;;;;;5.80;3.47;;;23.60;99.90;;;;;;5013527;28;20045;-34
2023/08/21 00:54:25;;;;;;;3.55;3.08;;;23.60;99.90;;;;;;5013893;28;20028;-34
2023/08/21 00:56:52;;;;;;;3.67;3.38;;;23.60;99.90;;;;;;5013924;28;20030;-34
2023/08/21 00:59:19;;;;;;;3.65;3.25;;;23.60;99.90;;;;;;5013847;28;20057;-33
2023/08/21 01:01:45;;;;;;;5.53;3.55;;;23.60;99.90;;;;;;5013916;28;20022;-35
2023/08/21 01:04:11;;;;;;;4.25;3.30;;;23.60;99.90;;;;;;5013829;28;20030;-34
2023/08/21 01:06:37;;;;;;;4.95;3.50;;;23.60;99.90;;;;;;5013599;28;20026;-36
2023/08/21 01:09:17;;;;;;;3.63;3.30;;;23.60;99.90;;;;;;5013502;28;20080;-35
2023/08/21 01:12:21;;;;;;;3.88;3.53;;;23.60;99.90;;;;;;5013734;28;20479;-35
2023/08/21 01:14:56;;;;;;;3.50;3.20;;;23.60;99.90;;;;;;5013727;28;20033;-35
2023/08/21 01:17:23;;;;;;;3.85;3.45;;;23.50;99.90;;;;;;5014963;28;20036;-34
2023/08/21 01:19:50;;;;;;;6.78;3.72;;;23.60;99.90;;;;;;5015114;28;20087;-33
2023/08/21 01:22:16;;;;;;;4.30;3.75;;;23.50;99.90;;;;;;5015625;28;20052;-34
2023/08/21 01:24:42;;;;;;;4.72;3.33;;;23.60;99.90;;;;;;5015332;28;20026;-33
2023/08/21 01:27:09;;;;;;;5.30;3.25;;;23.60;99.90;;;;;;5013920;28;20088;-33
2023/08/21 01:29:35;;;;;;;3.67;3.30;;;23.60;99.90;;;;;;5013242;28;20032;-34
2023/08/21 01:32:17;;;;;;;4.28;3.63;;;23.60;99.90;;;;;;5013290;28;20101;-34
2023/08/21 01:34:43;;;;;;;5.07;3.20;;;23.50;99.90;;;;;;5013253;28;20026;-34
2023/08/21 01:37:10;;;;;;;4.25;3.50;;;23.50;99.90;;;;;;5013038;28;20034;-33
2023/08/21 01:39:37;;;;;;;3.67;3.38;;;23.50;99.90;;;;;;5012848;28;20157;-33
2023/08/21 01:42:02;;;;;;;4.10;3.70;;;23.50;99.90;;;;;;5013169;28;20057;-34
2023/08/21 01:44:28;;;;;;;4.05;3.65;;;23.50;99.90;;;;;;5012957;28;20030;-34
2023/08/21 01:46:54;;;;;;;3.97;3.58;;;23.50;99.90;;;;;;5012880;28;20037;-34
2023/08/21 01:49:20;;;;;;;4.15;3.50;;;23.50;99.90;;;;;;5012719;28;20069;-35
2023/08/21 01:51:46;;;;;;;3.92;3.50;;;23.50;99.90;;;;;;5012915;28;20014;-33
2023/08/21 01:54:11;;;;;;;4.00;3.60;;;23.50;99.90;;;;;;5012949;28;20026;-34
2023/08/21 01:56:37;;;;;;;3.85;3.33;;;23.50;99.90;;;;;;5012808;28;20431;-34
2023/08/21 01:59:04;;;;;;;4.45;3.60;;;23.50;99.90;;;;;;5011422;28;20030;-33
2023/08/21 02:01:30;;;;;;;5.22;3.58;;;23.50;99.90;;;;;;5012745;28;20033;-34
2023/08/21 02:03:56;;;;;;;4.75;3.25;;;23.50;99.90;;;;;;5011785;28;20034;-34
2023/08/21 02:06:22;;;;;;;4.70;3.58;;;23.50;99.90;;;;;;5012514;28;20113;-33
2023/08/21 02:08:49;;;;;;;5.65;3.40;;;23.50;99.90;;;;;;5012504;28;20026;-35
2023/08/21 02:11:15;;;;;;;4.00;3.60;;;23.50;99.90;;;;;;5012988;28;20466;-34
2023/08/21 02:13:40;;;;;;;4.75;3.40;;;23.50;99.90;;;;;;5012395;28;20026;-34
2023/08/21 02:16:07;;;;;;;6.28;3.65;;;23.50;99.90;;;;;;5012502;28;20101;-33
2023/08/21 02:18:32;;;;;;;5.95;3.83;;;23.50;99.90;;;;;;5012310;28;20114;-34
2023/08/21 02:20:59;;;;;;;5.93;3.95;;;23.50;99.90;;;;;;5012232;28;20566;-34
2023/08/21 02:23:25;;;;;;;6.82;3.40;;;23.50;99.90;;;;;;5012369;28;20388;-34
2023/08/21 02:25:51;;;;;;;3.85;3.17;;;23.50;99.90;;;;;;5012344;28;20545;-34
2023/08/21 02:28:17;;;;;;;4.95;3.50;;;23.50;99.90;;;;;;5012034;28;20037;-33
2023/08/21 02:30:43;;;;;;;3.83;3.42;;;23.50;99.90;;;;;;5012085;28;20542;-33
2023/08/21 02:33:08;;;;;;;3.72;3.17;;;23.50;99.90;;;;;;5012222;28;20551;-34
2023/08/21 02:35:34;;;;;;;4.82;3.65;;;23.50;99.90;;;;;;5012260;28;20026;-33
2023/08/21 02:37:59;;;;;;;4.10;3.40;;;23.50;99.90;;;;;;5012071;28;20042;-33
2023/08/21 02:40:25;;;;;;;5.78;3.80;;;23.50;99.90;;;;;;5010906;28;20042;-34
2023/08/21 02:42:51;;;;;;;5.85;3.67;;;23.50;99.90;;;;;;5011989;28;20360;-34
2023/08/21 02:45:16;;;;;;;4.55;3.58;;;23.40;99.90;;;;;;5012012;28;20041;-33
2023/08/21 02:47:42;;;;;;;4.05;3.22;;;23.40;99.90;;;;;;5012004;28;20030;-34
2023/08/21 02:50:09;;;;;;;4.85;3.60;;;23.40;99.90;;;;;;5011711;28;20060;-35
2023/08/21 02:52:36;;;;;;;3.35;3.05;;;23.40;99.90;;;;;;5011908;28;20080;-34
2023/08/21 02:55:02;;;;;;;5.35;3.80;;;23.40;99.90;;;;;;5011835;28;20026;-33
2023/08/21 02:57:28;;;;;;;4.15;3.42;;;23.40;99.90;;;;;;5011727;28;20053;-33
2023/08/21 02:59:55;;;;;;;3.90;3.50;;;23.40;99.90;;;;;;5011617;28;20464;-33
2023/08/21 03:02:21;;;;;;;5.03;3.55;;;23.50;99.90;;;;;;5011783;28;20037;-34
2023/08/21 03:04:47;;;;;;;6.50;3.50;;;23.50;99.90;;;;;;5011752;28;20026;-34
2023/08/21 03:07:13;;;;;;;5.90;3.30;;;23.40;99.90;;;;;;5011564;28;20026;-34
2023/08/21 03:09:40;;;;;;;4.03;3.30;;;23.50;99.90;;;;;;5011449;28;20034;-34
2023/08/21 03:12:06;;;;;;;4.43;3.42;;;23.40;99.90;;;;;;5011461;28;20030;-34
2023/08/21 03:14:32;;;;;;;6.47;3.70;;;23.40;99.90;;;;;;5011472;28;20025;-33
2023/08/21 03:16:57;;;;;;;4.55;3.80;;;23.40;99.90;;;;;;5011709;28;20037;-34
2023/08/21 03:19:23;;;;;;;6.53;3.38;;;23.40;99.90;;;;;;5011460;28;20033;-34
2023/08/21 03:21:49;;;;;;;4.32;3.70;;;23.40;99.90;;;;;;5011595;28;20026;-33
2023/08/21 03:24:15;;;;;;;5.55;3.70;;;23.40;99.90;;;;;;5011551;28;20022;-33
2023/08/21 03:26:41;;;;;;;5.05;3.85;;;23.40;99.90;;;;;;5011328;28;20022;-33
2023/08/21 03:29:06;;;;;;;4.38;3.72;;;23.40;99.90;;;;;;5011335;28;20077;-33
2023/08/21 03:31:32;;;;;;;3.95;3.33;;;23.40;99.90;;;;;;5011484;28;20035;-34
2023/08/21 03:33:57;;;;;;;4.80;3.55;;;23.40;99.90;;;;;;5011436;28;20093;-33
2023/08/21 03:36:33;;;;;;;5.10;3.25;;;23.40;99.90;;;;;;5011339;28;20264;-33
2023/08/21 03:39:03;;;;;;;5.30;3.72;;;23.40;99.90;;;;;;5016094;22;20513;-40
2023/08/21 03:41:29;;;;;;;4.00;3.60;;;23.40;99.90;;;;;;4991657;28;20022;-40
2023/08/21 03:43:55;;;;;;;4.13;3.55;;;23.40;99.90;;;;;;4991768;28;20022;-38
2023/08/21 03:46:20;;;;;;;4.90;3.75;;;23.40;99.90;;;;;;4991673;28;20493;-42
2023/08/21 03:48:46;;;;;;;5.72;3.78;;;23.40;99.90;;;;;;4991652;28;20031;-41
2023/08/21 03:51:12;;;;;;;3.50;3.20;;;23.30;99.90;;;;;;4991685;28;20027;-39
2023/08/21 03:53:37;;;;;;;4.07;3.65;;;23.30;99.90;;;;;;4991612;28;20053;-40
2023/08/21 03:56:03;;;;;;;5.70;3.67;;;23.40;99.90;;;;;;4991912;28;20064;-40
2023/08/21 03:58:29;;;;;;;4.53;3.50;;;23.30;99.90;;;;;;4991569;28;20053;-40
2023/08/21 04:00:54;;;;;;;4.38;3.60;;;23.30;99.90;;;;;;4991438;28;20395;-37
2023/08/21 04:03:20;;;;;;;4.18;3.58;;;23.40;99.90;;;;;;4991610;28;20042;-40
2023/08/21 04:05:47;;;;;;;6.22;3.95;;;23.40;99.90;;;;;;4992101;28;20022;-37
2023/08/21 04:08:13;;;;;;;4.90;3.80;;;23.40;99.90;;;;;;4991331;28;20058;-41
2023/08/21 04:10:39;;;;;;;4.75;3.80;;;23.40;99.90;;;;;;4991325;28;20065;-40
2023/08/21 04:13:05;;;;;;;6.70;4.00;;;23.30;99.90;;;;;;4991505;28;20105;-41
2023/08/21 04:15:31;;;;;;;4.53;3.83;;;23.40;99.90;;;;;;4991475;28;20436;-41
2023/08/21 04:17:57;;;;;;;5.60;3.95;;;23.30;99.90;;;;;;4991456;28;20027;-42
2023/08/21 04:20:23;;;;;;;4.00;3.60;;;23.40;99.90;;;;;;4991213;28;20018;-41
2023/08/21 04:22:49;;;;;;;6.50;3.63;;;23.30;99.90;;;;;;4991325;28;20023;-42
2023/08/21 04:25:15;;;;;;;7.32;3.75;;;23.40;99.90;;;;;;4991717;28;20046;-40
2023/08/21 04:27:42;;;;;;;6.07;3.80;;;23.30;99.90;;;;;;4993680;28;20034;-39
2023/08/21 04:30:08;;;;;;;4.47;3.75;;;23.30;99.90;;;;;;4994638;28;20467;-44
2023/08/21 04:32:34;;;;;;;5.88;3.83;;;23.30;99.90;;;;;;4994769;28;20034;-41
2023/08/21 04:35:00;;;;;;;4.30;3.40;;;23.30;99.90;;;;;;4994762;28;20027;-39
2023/08/21 04:37:26;;;;;;;4.82;3.33;;;23.30;99.90;;;;;;4994514;28;20041;-39
2023/08/21 04:39:52;;;;;;;4.88;3.85;;;23.30;99.90;;;;;;4994539;28;20483;-39
2023/08/21 04:42:18;;;;;;;14.55;4.68;;;23.30;99.90;;;;;;4994682;28;20129;-41
2023/08/21 04:44:44;;;;;;;9.13;4.32;;;23.20;99.90;;;;;;4994560;28;20519;-42
2023/08/21 04:47:23;;;;;;;13.23;4.70;;;23.00;99.90;;;;;;4994445;28;20026;-41
2023/08/21 04:49:50;;;;;;;12.95;4.90;;;23.00;99.90;;;;;;4994288;28;20026;-40
2023/08/21 04:52:16;;;;;;;7.82;4.43;;;23.00;99.90;;;;;;4994497;28;20034;-38
2023/08/21 04:54:41;;;;;;;8.15;4.60;;;23.00;99.90;;;;;;4993110;28;20138;-38
2023/08/21 04:57:07;;;;;;;7.88;4.50;;;23.00;99.90;;;;;;4994525;28;20030;-40
2023/08/21 04:59:33;;;;;;;8.45;4.65;;;23.00;99.90;;;;;;4994197;28;20081;-38
2023/08/21 05:01:58;;;;;;;9.18;4.88;;;23.00;99.90;;;;;;4994386;28;20026;-38
2023/08/21 05:04:24;;;;;;;9.68;4.53;;;23.00;99.90;;;;;;4993253;28;20468;-37
2023/08/21 05:06:49;;;;;;;5.03;4.35;;;23.10;99.90;;;;;;4992828;28;20035;-39
2023/08/21 05:09:15;;;;;;;6.97;4.55;;;23.00;99.90;;;;;;4994014;28;20482;-37
2023/08/21 05:11:41;;;;;;;7.45;4.05;;;23.10;99.90;;;;;;4994182;28;20027;-37
2023/08/21 05:14:06;;;;;;;5.00;4.07;;;23.10;99.90;;;;;;4994035;28;20388;-38
2023/08/21 05:16:32;;;;;;;5.53;3.95;;;23.10;99.90;;;;;;4994471;28;20033;-42
2023/08/21 05:18:58;;;;;;;8.73;4.50;;;23.10;99.90;;;;;;4993785;28;20054;-38
2023/08/21 05:21:23;;;;;;;7.40;4.35;;;23.10;99.90;;;;;;4993453;28;20118;-39
2023/08/21 05:23:51;;;;;;;8.75;4.38;;;23.10;99.90;;;;;;4994390;28;20022;-38
2023/08/21 05:26:16;;;;;;;9.35;4.28;;;23.10;99.90;;;;;;4994101;28;20023;-38
2023/08/21 05:28:42;;;;;;;6.70;4.20;;;23.10;99.90;;;;;;4993896;28;20034;-38
2023/08/21 05:31:08;;;;;;;10.20;4.32;;;23.10;99.90;;;;;;4994084;28;20656;-42
2023/08/21 05:33:33;;;;;;;6.32;4.43;;;23.10;99.90;;;;;;4992487;28;20026;-41
2023/08/21 05:35:59;;;;;;;4.85;4.30;;;23.10;99.90;;;;;;4993628;28;20392;-40
2023/08/21 05:38:24;;;;;;;8.27;4.20;;;23.10;99.90;;;;;;4993598;28;20073;-40
2023/08/21 05:40:50;;;;;;;5.63;4.45;;;23.10;99.90;;;;;;4993481;28;20471;-43
2023/08/21 05:43:19;;;;;;;6.18;4.28;;;23.10;99.90;;;;;;4993565;28;20106;-37
2023/08/21 05:45:45;;;;;;;9.13;4.40;;;23.20;99.90;;;;;;4993574;28;20113;-43
2023/08/21 05:48:10;;;;;;;4.93;3.83;;;23.10;99.90;;;;;;4993294;28;20442;-40
2023/08/21 05:50:36;;;;;;;7.63;4.28;;;23.10;99.90;;;;;;4993183;28;20490;-42
2023/08/21 05:53:05;;;;;;;6.10;4.35;;;23.10;99.90;;;;;;4993396;28;20023;-38
2023/08/21 05:55:31;;;;;;;7.70;4.20;;;23.10;99.90;;;;;;4992085;28;20022;-37
2023/08/21 05:57:56;;;;;;;6.20;4.50;;;23.10;99.90;;;;;;4993229;28;20076;-40
2023/08/21 06:00:22;;;;;;;4.35;3.95;;;23.10;99.90;;;;;;4993054;28;20065;-40
2023/08/21 06:02:48;;;;;;;8.60;4.25;;;23.20;99.90;;;;;;4993089;28;20072;-43
2023/08/21 06:05:13;;;;;;;5.78;4.30;;;23.10;99.90;;;;;;4993363;28;20030;-41
2023/08/21 06:07:43;;;;;;;8.93;4.38;;;23.10;99.90;;;;;;4992996;28;20483;-40
2023/08/21 06:10:12;;;;;;;6.47;4.15;;;23.10;99.90;;;;;;4992918;28;20050;-41
2023/08/21 06:12:38;;;;;;;5.28;4.10;;;23.10;99.90;;;;;;4992945;28;20018;-44
2023/08/21 06:15:04;;;;;;;4.82;3.90;;;23.10;99.90;;;;;;4991681;28;20033;-42
2023/08/21 06:17:29;;;;;;;9.55;4.65;;;23.20;99.90;;;;;;4992779;28;20030;-41
2023/08/21 06:19:55;;;;;;;5.43;4.18;;;23.20;99.90;;;;;;4992644;28;20052;-43
2023/08/21 06:22:21;;;;;;;7.72;4.40;;;23.20;99.90;;;;;;4992858;28;20018;-41
2023/08/21 06:24:47;;;;;;;5.47;4.13;;;23.10;99.90;;;;;;4992800;28;20170;-40
2023/08/21 06:27:12;;;;;;;6.53;4.10;;;23.10;99.90;;;;;;4992612;28;20579;-43
2023/08/21 06:29:40;;;;;;;6.10;4.22;;;23.20;99.90;;;;;;4992381;28;20022;-45
2023/08/21 06:32:05;;;;;;;5.55;4.10;;;23.10;99.90;;;;;;4992543;28;20027;-41
2023/08/21 06:34:31;;;;;;;5.43;4.10;;;23.10;99.90;;;;;;4992575;28;20086;-42
2023/08/21 06:36:57;;;;;;;4.53;4.05;;;23.10;99.90;;;;;;4992368;28;20030;-42
2023/08/21 06:39:22;;;;;;;5.13;4.35;;;23.20;99.90;;;;;;4992375;28;20045;-40
2023/08/21 06:41:48;;;;;;;5.72;4.13;;;23.20;99.90;;;;;;4992573;28;20034;-42
2023/08/21 06:44:14;;;;;;;7.20;4.43;;;23.20;99.90;;;;;;4992465;28;20053;-40
2023/08/21 06:46:39;;;;;;;14.15;4.35;;;23.10;99.90;;;;;;4992276;28;20031;-39
2023/08/21 06:49:05;;;;;;;7.50;4.03;;;23.20;99.90;;;;;;4991724;28;20380;-42
2023/08/21 06:51:31;;;;;;;6.88;3.92;;;23.20;99.90;;;;;;4992348;28;20075;-41
2023/08/21 06:53:56;;;;;;;9.23;4.10;;;23.20;99.90;;;;;;4993055;28;20022;-44
2023/08/21 06:56:22;;;;;;;6.97;3.85;;;23.10;99.90;;;;;;4992584;28;20018;-41
2023/08/21 06:58:47;;;;;;;5.05;3.85;;;23.20;99.90;;;;;;4992453;28;20084;-39
2023/08/21 07:01:13;;;;;;;5.93;3.85;;;23.10;99.90;;;;;;4991994;28;20025;-40
2023/08/21 07:03:39;;;;;;;4.68;4.00;;;23.20;99.90;;;;;;4992381;28;20029;-38
2023/08/21 07:06:04;;;;;;;6.97;4.10;;;23.20;99.90;;;;;;4992128;28;20030;-41
2023/08/21 07:08:30;;;;;;;5.50;3.83;;;23.20;99.90;;;;;;4992007;28;20080;-45
2023/08/21 07:11:01;;;;;;;7.50;4.22;;;23.20;99.90;;;;;;4991911;28;20384;-46
2023/08/21 07:13:27;;;;;;;4.63;3.70;;;23.20;99.90;;;;;;4992079;28;20045;-41
2023/08/21 07:15:54;;;;;;;4.57;3.70;;;23.20;99.90;;;;;;4991967;28;20429;-42
2023/08/21 07:18:20;;;;;;;4.18;3.78;;;23.20;99.90;;;;;;4992023;28;20145;-41
2023/08/21 07:20:45;;;;;;;4.13;3.67;;;23.20;99.90;;;;;;4991881;28;20109;-42
2023/08/21 07:23:11;;;;;;;5.07;3.80;;;23.20;99.90;;;;;;4992018;28;20022;-42
2023/08/21 07:25:37;;;;;;;5.47;3.72;;;23.20;99.90;;;;;;4991959;28;20088;-44
2023/08/21 07:28:03;;;;;;;4.82;3.95;;;23.20;99.90;;;;;;4991757;28;20100;-42
2023/08/21 07:30:28;;;;;;;9.30;4.75;;;23.20;99.90;;;;;;4990525;28;20546;-42
2023/08/21 07:32:54;;;;;;;12.13;5.03;;;23.30;99.90;;;;;;4991858;28;20027;-40
2023/08/21 07:35:20;;;;;;;9.60;5.18;;;23.40;99.90;;;;;;4991972;28;20165;-39
2023/08/21 07:37:46;;;;;;;12.43;5.60;;;23.40;99.90;;;;;;4991712;28;20034;-39
2023/08/21 07:40:12;;;;;;;13.05;5.20;;;23.50;99.90;;;;;;4992029;28;20491;-37
2023/08/21 07:42:38;;;;;;;10.18;5.45;;;23.50;99.90;;;;;;4991814;28;20069;-39
2023/08/21 07:45:04;;;;;;;9.02;4.88;;;23.50;99.90;;;;;;4991780;28;20546;-40
2023/08/21 07:47:30;;;;;;;9.75;4.55;;;23.50;99.90;;;;;;4991720;28;20035;-40
2023/08/21 07:49:57;;;;;;;8.77;4.97;;;23.40;99.90;;;;;;4991679;28;20049;-38
2023/08/21 07:52:23;;;;;;;8.10;5.07;;;23.50;99.90;;;;;;4992062;28;20029;-38
2023/08/21 07:54:52;;;;;;;8.75;5.13;;;23.50;99.90;;;;;;4991810;28;20022;-38
2023/08/21 07:57:18;;;;;;;7.88;4.65;;;23.50;99.90;;;;;;4992397;28;20026;-36
2023/08/21 07:59:44;;;;;;;7.13;5.20;;;23.50;99.90;;;;;;4991738;28;20038;-37
2023/08/21 08:02:12;;;;;;;8.68;5.28;;;23.40;99.90;;;;;;4993909;28;20575;-39
2023/08/21 08:04:38;;;;;;;5.75;4.22;;;23.50;99.90;;;;;;4995522;28;20034;-39
2023/08/21 08:07:04;;;;;;;5.60;4.75;;;23.50;99.90;;;;;;4995221;28;20081;-39
2023/08/21 08:09:30;;;;;;;5.53;4.25;;;23.50;99.90;;;;;;4995139;28;20022;-39
2023/08/21 08:11:56;;;;;;;5.25;4.75;;;23.50;99.90;;;;;;4995178;28;20018;-38
2023/08/21 08:14:21;;;;;;;6.75;4.72;;;23.50;99.90;;;;;;4995140;28;20113;-39
2023/08/21 08:16:47;;;;;;;7.85;4.18;;;23.50;99.90;;;;;;4995076;28;20022;-39
2023/08/21 08:19:13;;;;;;;7.10;4.90;;;23.50;99.90;;;;;;4994996;28;20122;-39
2023/08/21 08:21:38;;;;;;;7.22;4.32;;;23.50;99.90;;;;;;4995207;28;20145;-39
2023/08/21 08:24:04;;;;;;;7.85;4.60;;;23.50;99.90;;;;;;4995124;28;20041;-38
2023/08/21 08:26:30;;;;;;;6.43;3.90;;;23.50;99.90;;;;;;4994886;28;20109;-40
2023/08/21 08:28:55;;;;;;;5.00;4.43;;;23.50;99.90;;;;;;4994720;28;20070;-42
2023/08/21 08:31:23;;;;;;;5.05;4.30;;;23.50;99.90;;;;;;4994907;28;20480;-40
2023/08/21 08:33:49;;;;;;;5.82;4.43;;;23.50;99.90;;;;;;4994942;28;20061;-40
2023/08/21 08:36:14;;;;;;;5.70;3.97;;;23.50;99.90;;;;;;4994921;28;20488;-39
2023/08/21 08:38:40;;;;;;;4.72;4.00;;;23.50;99.90;;;;;;4994607;28;20093;-39
2023/08/21 08:41:11;;;;;;;6.13;4.28;;;23.50;99.90;;;;;;4994471;28;20029;-37
2023/08/21 08:43:40;;;;;;;4.38;3.67;;;23.60;99.90;;;;;;4994662;28;20073;-40
2023/08/21 08:46:07;;;;;;;5.28;3.78;;;23.60;99.90;;;;;;4994675;28;20530;-36
2023/08/21 08:48:34;;;;;;;4.85;4.22;;;23.60;99.90;;;;;;4994629;28;20081;-39
2023/08/21 08:51:01;;;;;;;6.10;4.20;;;23.50;99.90;;;;;;4993567;28;20034;-40
2023/08/21 08:53:28;;;;;;;4.30;3.90;;;23.60;99.90;;;;;;4994923;28;20085;-40
2023/08/21 08:55:54;;;;;;;4.60;4.20;;;23.60;99.90;;;;;;4994523;28;20416;-40
2023/08/21 08:58:21;;;;;;;6.03;4.35;;;23.60;99.90;;;;;;4993211;28;20097;-39
2023/08/21 09:00:46;;;;;;;4.93;4.25;;;23.60;99.90;;;;;;4993445;28;20125;-39
2023/08/21 09:03:13;;;;;;;5.80;3.95;;;23.60;99.90;;;;;;4994597;28;20547;-40
2023/08/21 09:05:40;;;;;;;6.30;3.80;;;23.60;99.90;;;;;;4993723;28;20104;-39
2023/08/21 09:08:11;;;;;;;4.30;3.78;;;23.60;99.90;;;;;;4994372;28;20026;-39
2023/08/21 09:10:38;;;;;;;4.93;4.13;;;23.60;99.90;;;;;;4993028;28;20041;-39
2023/08/21 09:13:17;;;;;;;5.72;3.67;;;23.70;99.90;;;;;;4992899;28;20118;-42
2023/08/21 09:15:46;;;;;;;4.82;4.07;;;23.60;99.90;;;;;;4994343;28;20028;-39
2023/08/21 09:18:12;;;;;;;4.43;3.80;;;23.70;99.90;;;;;;4994308;28;20052;-41
2023/08/21 09:20:39;;;;;;;5.22;4.03;;;23.60;99.90;;;;;;4994339;28;20482;-42
2023/08/21 09:23:06;;;;;;;4.13;3.72;;;23.70;99.90;;;;;;4976771;28;20033;-39
2023/08/21 09:25:37;;;;;;;4.47;3.67;;;23.70;99.90;;;;;;4994769;28;20333;-40
2023/08/21 09:28:08;;;;;;;6.25;3.90;;;23.70;99.90;;;;;;4993793;28;20023;-40
2023/08/21 09:30:53;;;;;;;3.88;3.42;;;23.70;99.90;;;;;;4993741;28;20101;-39
2023/08/21 09:33:21;;;;;;;4.72;4.30;;;23.70;99.90;;;;;;4993894;28;20019;-42
2023/08/21 09:35:47;;;;;;;4.65;3.67;;;23.70;99.90;;;;;;4994027;28;20031;-40
2023/08/21 09:38:16;;;;;;;4.60;3.72;;;23.70;99.90;;;;;;4994095;28;20050;-39
2023/08/21 09:40:50;;;;;;;5.22;4.15;;;23.70;99.90;;;;;;4993454;28;20080;-40
2023/08/21 09:43:16;;;;;;;4.97;3.30;;;23.70;99.90;;;;;;4993782;28;20060;-38
2023/08/21 09:45:46;;;;;;;3.97;3.58;;;23.80;99.90;;;;;;4993698;28;20058;-37
2023/08/21 09:48:12;;;;;;;4.60;3.67;;;23.70;99.90;;;;;;4993442;28;20031;-36
2023/08/21 09:50:40;;;;;;;3.85;3.45;;;23.80;99.90;;;;;;4993306;28;20026;-38
2023/08/21 09:53:06;;;;;;;3.88;3.58;;;23.80;99.90;;;;;;4993346;28;20396;-38
2023/08/21 09:55:32;;;;;;;4.18;3.58;;;23.80;99.90;;;;;;4993317;28;20018;-47
2023/08/21 09:58:02;;;;;;;3.80;3.40;;;23.80;99.90;;;;;;4993311;28;20033;-38
2023/08/21 10:00:33;;;;;;;3.88;3.47;;;23.80;99.90;;;;;;4992925;28;20018;-40
2023/08/21 10:03:07;;;;;;;4.63;3.50;;;23.80;99.90;;;;;;4993204;28;20037;-39
2023/08/21 10:05:35;;;;;;;5.78;3.60;;;23.80;99.90;;;;;;4993222;28;20030;-39
2023/08/21 10:08:03;;;;;;;5.03;3.40;;;23.80;99.90;;;;;;4991783;28;20403;-38
2023/08/21 10:10:34;;;;;;;4.55;3.70;;;23.80;99.90;;;;;;4992920;28;20483;-44
2023/08/21 10:13:00;;;;;;;3.67;3.33;;;23.80;99.90;;;;;;4993104;28;20755;-42
2023/08/21 10:15:29;;;;;;;4.10;3.53;;;23.80;99.90;;;;;;4993244;28;20022;-40
2023/08/21 10:17:54;;;;;;;3.88;3.38;;;23.80;99.90;;;;;;4991845;28;20042;-40
2023/08/21 10:20:25;;;;;;;4.55;3.70;;;23.90;99.90;;;;;;4992856;28;20461;-41
2023/08/21 10:23:00;;;;;;;8.18;4.00;;;23.90;99.90;;;;;;4992849;28;20030;-42
2023/08/21 10:25:26;;;;;;;5.18;3.80;;;23.90;99.90;;;;;;4992114;28;20030;-40
2023/08/21 10:27:53;;;;;;;4.93;3.85;;;23.90;99.90;;;;;;4992722;28;20097;-38
2023/08/21 10:30:24;;;;;;;5.30;3.90;;;23.90;99.90;;;;;;4992548;28;20026;-39
2023/08/21 10:32:55;;;;;;;5.10;3.83;;;23.90;99.90;;;;;;4992700;28;20484;-38
2023/08/21 10:35:23;;;;;;;3.50;3.20;;;23.90;99.90;;;;;;4992729;28;20392;-39
2023/08/21 10:38:12;;;;;;;4.55;3.70;;;23.90;99.90;;;;;;4992302;28;20089;-41
2023/08/21 10:40:39;;;;;;;4.60;3.83;;;23.90;99.90;;;;;;4992312;28;20399;-40
2023/08/21 10:43:25;;;;;;;4.97;3.70;;;24.00;99.90;;;;;;4992523;28;20026;-38
2023/08/21 10:45:55;;;;;;;4.95;3.83;;;23.90;99.90;;;;;;4992274;28;20114;-39
2023/08/21 10:48:21;;;;;;;4.05;3.65;;;24.00;99.90;;;;;;4992264;28;20025;-38
2023/08/21 10:50:47;;;;;;;4.78;3.78;;;24.00;99.90;;;;;;4991071;28;20388;-43
2023/08/21 10:53:13;;;;;;;5.22;3.45;;;24.00;99.90;;;;;;4992387;28;20045;-37
2023/08/21 10:55:38;;;;;;;4.97;3.40;;;24.00;99.90;;;;;;4992518;28;20022;-37
2023/08/21 10:58:04;;;;;;;4.97;3.35;;;24.10;99.90;;;;;;4992758;28;20033;-38
2023/08/21 11:00:30;;;;;;;4.05;3.63;;;24.10;99.90;;;;;;4993893;28;20439;-39
2023/08/21 11:02:56;;;;;;;4.97;3.80;;;24.10;99.90;;;;;;4993501;28;20096;-38
2023/08/21 11:05:21;;;;;;;4.10;3.70;;;24.10;99.90;;;;;;4992528;28;20448;-38
2023/08/21 11:07:48;;;;;;;3.63;3.33;;;24.10;99.90;;;;;;4991957;28;20101;-36
2023/08/21 11:10:21;;;;;;;4.28;3.55;;;24.10;99.90;;;;;;4991877;28;20065;-40
2023/08/21 11:12:55;;;;;;;3.75;3.33;;;24.10;99.90;;;;;;4992078;28;20015;-42
2023/08/21 11:15:21;;;;;;;;;;;24.10;99.90;;;;;;4992417;28;20030;-39
2023/08/21 11:18:13;;;;;;;5.13;3.70;;;24.10;99.90;;;;;;4991986;28;19992;-37
2023/08/21 11:20:38;;;;;;;4.03;3.50;;;24.10;99.90;;;;;;4990007;28;20046;-39
2023/08/21 11:23:06;;;;;;;3.60;3.30;;;24.20;99.90;;;;;;4991966;28;20027;-41
2023/08/21 11:25:33;;;;;;;3.95;3.50;;;24.20;99.90;;;;;;4991969;28;20022;-37
2023/08/21 11:27:59;;;;;;;3.92;3.30;;;24.20;99.90;;;;;;4991733;28;20027;-38
2023/08/21 11:30:25;;;;;;;4.68;3.55;;;24.20;99.90;;;;;;4991733;28;20026;-40
2023/08/21 11:33:07;;;;;;;3.97;3.65;;;24.20;99.90;;;;;;4991894;28;20062;-40
2023/08/21 11:35:33;;;;;;;6.72;3.50;;;24.20;99.90;;;;;;4992563;28;20022;-36
2023/08/21 11:37:59;;;;;;;4.13;3.80;;;24.30;99.90;;;;;;4995819;28;20444;-40
2023/08/21 11:40:24;;;;;;;5.13;3.60;;;24.30;99.90;;;;;;4994207;28;20038;-39
2023/08/21 11:42:51;;;;;;;4.15;3.65;;;24.20;99.90;;;;;;4995787;28;20026;-39
2023/08/21 11:45:20;;;;;;;4.35;3.88;;;24.30;99.90;;;;;;4995833;28;20046;-40
2023/08/21 11:47:46;;;;;;;4.18;3.67;;;24.30;99.90;;;;;;4995581;28;20492;-40
2023/08/21 11:50:15;;;;;;;3.85;3.50;;;24.30;99.90;;;;;;4995447;28;20033;-38
2023/08/21 11:52:42;;;;;;;4.45;3.55;;;24.30;99.90;;;;;;4995648;28;20368;-42
2023/08/21 11:55:10;;;;;;;4.15;3.58;;;24.30;99.90;;;;;;4995550;28;20182;-39
2023/08/21 11:57:48;;;;;;;4.05;3.42;;;24.30;99.90;;;;;;4995583;28;20480;-39
2023/08/21 12:00:18;;;;;;;4.10;3.60;;;24.30;99.90;;;;;;4995405;28;20030;-40
2023/08/21 12:02:54;;;;;;;6.50;3.70;;;24.30;99.90;;;;;;4995495;28;20106;-36
2023/08/21 12:05:20;;;;;;;3.45;3.15;;;24.30;99.90;;;;;;4995344;28;20026;-41
2023/08/21 12:07:46;;;;;;;6.00;3.72;;;24.30;99.90;;;;;;4995258;28;20526;-39
2023/08/21 12:10:12;;;;;;;4.03;3.50;;;24.30;99.90;;;;;;4995141;28;20077;-40
2023/08/21 12:12:37;;;;;;;4.68;3.55;;;24.30;99.90;;;;;;4995331;28;20522;-37
2023/08/21 12:15:03;;;;;;;4.10;3.70;;;24.30;99.90;;;;;;4995221;28;20054;-42
2023/08/21 12:17:29;;;;;;;4.75;3.85;;;24.30;99.90;;;;;;4995135;28;20041;-38
2023/08/21 12:19:54;;;;;;;5.72;3.40;;;24.30;99.90;;;;;;4994789;28;20019;-38
2023/08/21 12:22:20;;;;;;;5.30;3.67;;;24.30;99.90;;;;;;4995332;28;20062;-42
2023/08/21 12:24:45;;;;;;;5.28;3.72;;;24.30;99.90;;;;;;4995191;28;20361;-39
2023/08/21 12:27:11;;;;;;;3.67;3.38;;;24.30;99.90;;;;;;4994899;28;20027;-38
2023/08/21 12:29:37;;;;;;;4.22;3.80;;;24.30;99.90;;;;;;4994716;28;20022;-39
2023/08/21 12:32:03;;;;;;;3.97;3.55;;;24.30;99.90;;;;;;4994947;28;20096;-39
2023/08/21 12:34:28;;;;;;;3.88;3.45;;;24.30;99.90;;;;;;4994867;28;20428;-40
2023/08/21 12:36:54;;;;;;;4.90;3.47;;;24.30;99.90;;;;;;4994651;28;20054;-38
2023/08/21 12:39:21;;;;;;;4.25;3.85;;;24.30;99.90;;;;;;4994620;28;20499;-40
2023/08/21 12:41:48;;;;;;;4.07;3.67;;;24.30;99.90;;;;;;4994793;28;20026;-40
2023/08/21 12:44:14;;;;;;;3.85;3.38;;;24.30;99.90;;;;;;4994706;28;20373;-40
2023/08/21 12:46:40;;;;;;;4.45;3.80;;;24.30;99.90;;;;;;4994475;28;20026;-38